createdAt,value
2019-02-16T00:04:34.478Z,83.10
2019-02-16T00:09:30.948Z,83.80
2019-02-16T00:11:59.365Z,84.20
2019-02-16T00:14:27.761Z,84.30
2019-02-16T00:16:56.172Z,84.50
2019-02-16T00:19:24.575Z,84.40
2019-02-16T00:21:52.989Z,84.60
2019-02-16T00:24:21.384Z,84.80
2019-02-16T00:26:49.797Z,85.10
2019-02-16T00:29:18.217Z,85.30
2019-02-16T00:31:46.620Z,85.50
2019-02-16T00:34:15.072Z,85.60
2019-02-16T00:36:43.469Z,85.60
2019-02-16T00:39:11.887Z,85.20
2019-02-16T00:41:40.285Z,85.10
2019-02-16T00:46:36.804Z,84.50
2019-02-16T00:51:33.289Z,84.50
2019-02-16T00:56:29.764Z,84.20
2019-02-16T00:58:58.173Z,84.50
2019-02-16T01:03:54.652Z,84.80
2019-02-16T01:06:23.128Z,84.80
2019-02-16T01:08:51.540Z,84.50
2019-02-16T01:11:19.935Z,84.20
2019-02-16T01:13:48.346Z,84.10
2019-02-16T01:16:16.748Z,84.10
2019-02-16T01:18:45.152Z,83.80
2019-02-16T01:21:22.229Z,83.80
2019-02-16T01:23:43.688Z,83.80
2019-02-16T01:26:12.097Z,83.80
2019-02-16T01:28:40.509Z,83.90
2019-02-16T01:31:08.913Z,83.80
2019-02-16T01:33:37.312Z,84.00
2019-02-16T01:36:05.785Z,83.40
2019-02-16T01:38:34.189Z,83.50
2019-02-16T01:41:02.591Z,83.70
2019-02-16T01:43:31.029Z,83.50
2019-02-16T01:48:27.500Z,83.70
2019-02-16T01:50:55.908Z,83.70
2019-02-16T01:53:24.304Z,83.70
2019-02-16T01:55:52.709Z,83.80
2019-02-16T02:00:49.200Z,83.80
2019-02-16T02:05:45.740Z,83.90
2019-02-16T02:08:14.417Z,83.90
2019-02-16T02:10:42.824Z,83.90
2019-02-16T02:13:11.228Z,83.90
2019-02-16T02:15:39.643Z,83.90
2019-02-16T02:18:08.054Z,83.90
2019-02-16T02:20:36.464Z,83.90
2019-02-16T02:23:04.861Z,84.00
2019-02-16T02:25:33.278Z,83.90
2019-02-16T02:28:01.672Z,83.80
2019-02-16T02:32:58.156Z,84.00
2019-02-16T02:37:54.620Z,85.10
2019-02-16T02:40:23.041Z,84.80
2019-02-16T02:42:51.445Z,84.90
2019-02-16T02:47:47.968Z,84.60
2019-02-16T02:52:44.489Z,84.40
2019-02-16T02:55:12.892Z,84.30
2019-02-16T03:00:10.409Z,84.30
2019-02-16T03:02:38.824Z,84.20
2019-02-16T03:05:09.468Z,84.10
2019-02-16T03:07:37.877Z,84.00
2019-02-16T03:10:07.216Z,84.10
2019-02-16T03:12:35.650Z,84.10
2019-02-16T03:15:04.987Z,84.20
2019-02-16T03:17:33.401Z,84.10
2019-02-16T03:22:58.500Z,84.00
2019-02-16T03:28:04.154Z,84.00
2019-02-16T03:33:14.313Z,84.30
2019-02-16T03:36:06.989Z,84.30
2019-02-16T03:38:41.396Z,84.10
2019-02-16T03:43:37.965Z,83.70
2019-02-16T03:46:06.368Z,84.00
2019-02-16T03:48:34.778Z,83.80
2019-02-16T03:51:03.172Z,83.70
2019-02-16T03:53:31.593Z,83.50
2019-02-16T03:56:00.003Z,83.70
2019-02-16T03:58:28.417Z,83.80
2019-02-16T04:00:56.808Z,84.10
2019-02-16T04:03:25.220Z,84.00
2019-02-16T04:05:53.616Z,84.00
2019-02-16T04:08:22.023Z,84.10
2019-02-16T04:10:50.504Z,84.10
2019-02-16T04:13:18.913Z,84.20
2019-02-16T04:15:47.322Z,84.10
2019-02-16T04:18:15.748Z,84.10
2019-02-16T04:20:44.152Z,84.00
2019-02-16T04:23:12.552Z,84.00
2019-02-16T04:25:40.960Z,84.10
2019-02-16T04:28:09.364Z,84.10
2019-02-16T04:30:37.757Z,84.00
2019-02-16T04:33:06.165Z,83.80
2019-02-16T04:38:02.701Z,83.70
2019-02-16T04:40:31.160Z,83.80
2019-02-16T04:42:59.565Z,84.00
2019-02-16T04:45:27.966Z,83.80
2019-02-16T04:47:56.372Z,84.00
2019-02-16T04:50:24.783Z,83.50
2019-02-16T04:52:53.265Z,83.70
2019-02-16T04:55:21.667Z,84.10
2019-02-16T04:57:50.075Z,84.00
2019-02-16T05:00:18.509Z,83.30
2019-02-16T05:02:46.971Z,83.40
2019-02-16T05:05:15.373Z,83.50
2019-02-16T05:07:43.777Z,83.70
2019-02-16T05:10:12.179Z,83.70
2019-02-16T05:12:40.581Z,83.70
2019-02-16T05:17:37.808Z,84.10
2019-02-16T05:20:07.144Z,84.00
2019-02-16T05:22:44.184Z,84.10
2019-02-16T05:27:33.733Z,84.20
2019-02-16T05:30:02.181Z,84.20
2019-02-16T05:32:30.582Z,84.20
2019-02-16T05:34:59.003Z,84.30
2019-02-16T05:37:27.401Z,84.20
2019-02-16T05:39:55.809Z,84.10
2019-02-16T05:44:52.297Z,84.20
2019-02-16T05:47:20.714Z,84.10
2019-02-16T05:49:49.121Z,84.00
2019-02-16T05:52:17.526Z,83.80
2019-02-16T05:54:45.936Z,83.80
2019-02-16T05:57:14.334Z,83.90
2019-02-16T05:59:42.758Z,84.10
2019-02-16T06:02:11.152Z,83.80
2019-02-16T06:04:39.561Z,83.90
2019-02-16T06:07:07.964Z,83.70
2019-02-16T06:09:36.373Z,83.80
2019-02-16T06:12:04.778Z,83.80
2019-02-16T06:14:33.171Z,84.00
2019-02-16T06:17:01.578Z,84.00
2019-02-16T06:19:29.996Z,84.00
2019-02-16T06:21:58.392Z,84.00
2019-02-16T06:24:26.938Z,84.00
2019-02-16T06:26:55.383Z,83.90
2019-02-16T06:29:23.784Z,84.10
2019-02-16T06:31:52.204Z,84.10
2019-02-16T06:34:20.603Z,84.10
2019-02-16T06:36:49.023Z,84.10
2019-02-16T06:41:45.501Z,83.90
2019-02-16T06:44:13.898Z,83.80
2019-02-16T06:46:42.311Z,83.90
2019-02-16T06:49:10.704Z,83.80
2019-02-16T06:51:39.120Z,83.90
2019-02-16T06:54:07.524Z,83.90
2019-02-16T06:56:37.576Z,83.90
2019-02-16T06:59:05.973Z,83.90
2019-02-16T07:01:34.387Z,83.70
2019-02-16T07:04:02.782Z,83.80
2019-02-16T07:06:31.239Z,84.00
2019-02-16T07:08:59.865Z,84.20
2019-02-16T07:11:28.276Z,84.10
2019-02-16T07:13:56.680Z,84.10
2019-02-16T07:16:29.457Z,83.90
2019-02-16T07:18:59.516Z,83.70
2019-02-16T07:21:27.926Z,82.10
2019-02-16T07:23:56.324Z,81.60
2019-02-16T07:28:52.805Z,81.40
2019-02-16T07:31:21.212Z,81.10
2019-02-16T07:33:49.604Z,81.30
2019-02-16T07:36:18.012Z,80.90
2019-02-16T07:38:46.409Z,80.60
2019-02-16T07:41:14.822Z,80.80
2019-02-16T07:43:44.981Z,80.30
2019-02-16T07:46:15.020Z,80.20
2019-02-16T07:48:45.057Z,79.80
2019-02-16T07:51:15.107Z,79.80
2019-02-16T07:53:50.973Z,79.80
2019-02-16T07:56:21.016Z,79.20
2019-02-16T07:58:53.811Z,78.90
2019-02-16T08:01:35.667Z,78.80
2019-02-16T08:04:05.696Z,79.20
2019-02-16T08:06:38.629Z,79.40
2019-02-16T08:11:44.002Z,79.10
2019-02-16T08:14:16.440Z,79.10
2019-02-16T08:16:46.488Z,79.00
2019-02-16T08:19:32.652Z,79.00
2019-02-16T08:22:05.604Z,78.60
2019-02-16T08:24:41.405Z,78.50
2019-02-16T08:27:20.262Z,78.40
2019-02-16T08:29:50.287Z,78.50
2019-02-16T08:32:35.024Z,78.50
2019-02-16T08:35:08.428Z,78.60
2019-02-16T08:37:47.473Z,78.10
2019-02-16T08:40:23.463Z,77.60
2019-02-16T08:43:08.456Z,77.40
2019-02-16T08:48:13.927Z,76.90
2019-02-16T08:50:46.442Z,77.10
2019-02-16T08:53:31.968Z,76.70
2019-02-16T08:56:04.648Z,76.00
2019-02-16T08:58:37.364Z,75.50
2019-02-16T09:01:23.693Z,75.20
2019-02-16T09:06:23.464Z,75.40
2019-02-16T09:09:02.274Z,73.90
2019-02-16T09:11:32.312Z,73.70
2019-02-16T09:14:04.918Z,73.20
2019-02-16T09:16:36.955Z,70.90
2019-02-16T09:19:23.266Z,69.90
2019-02-16T09:21:53.306Z,70.60
2019-02-16T09:24:41.615Z,70.50
2019-02-16T09:27:20.296Z,70.30
2019-02-16T09:29:50.343Z,69.90
2019-02-16T09:32:20.390Z,70.40
2019-02-16T09:34:50.438Z,69.90
2019-02-16T09:37:29.517Z,68.90
2019-02-16T09:39:59.572Z,68.50
2019-02-16T09:42:35.519Z,67.00
2019-02-16T09:45:09.691Z,67.10
2019-02-16T09:47:45.790Z,66.20
2019-02-16T09:50:21.293Z,64.70
2019-02-16T09:52:54.311Z,65.30
2019-02-16T09:55:32.996Z,63.90
2019-02-16T10:03:36.396Z,63.40
2019-02-16T10:06:12.661Z,62.60
2019-02-16T10:08:48.589Z,61.80
2019-02-16T10:11:24.541Z,61.30
2019-02-16T10:13:54.583Z,60.10
2019-02-16T10:16:30.596Z,59.00
2019-02-16T10:19:00.644Z,59.40
2019-02-16T10:21:36.661Z,57.60
2019-02-16T10:24:17.958Z,57.50
2019-02-16T10:27:03.640Z,56.60
2019-02-16T10:29:33.765Z,56.00
2019-02-16T10:32:09.253Z,57.20
2019-02-16T10:34:42.203Z,56.90
2019-02-16T10:37:12.246Z,56.00
2019-02-16T10:39:42.297Z,56.40
2019-02-16T10:42:24.268Z,55.60
2019-02-16T10:45:09.668Z,53.60
2019-02-16T10:47:42.656Z,53.40
2019-02-16T10:58:08.806Z,53.10
2019-02-16T11:03:11.485Z,53.00
2019-02-16T11:08:11.437Z,51.60
2019-02-16T11:13:24.154Z,50.10
2019-02-16T11:15:54.234Z,50.10
2019-02-16T11:18:36.348Z,49.60
2019-02-16T11:21:18.357Z,49.60
2019-02-16T11:24:04.637Z,49.70
2019-02-16T11:26:53.093Z,50.40
2019-02-16T11:29:23.186Z,50.80
2019-02-16T11:32:09.182Z,51.50
2019-02-16T11:34:48.128Z,51.70
2019-02-16T11:39:53.516Z,53.20
2019-02-16T11:45:26.132Z,53.80
2019-02-16T11:48:02.001Z,53.30
2019-02-16T11:50:38.185Z,53.10
2019-02-16T11:53:20.152Z,52.90
2019-02-16T11:56:05.160Z,53.00
2019-02-16T11:58:35.216Z,53.10
2019-02-16T12:01:05.257Z,52.90
2019-02-16T12:03:41.319Z,52.70
2019-02-16T12:06:14.358Z,53.20
2019-02-16T12:08:46.992Z,52.90
2019-02-16T12:11:19.988Z,52.90
2019-02-16T12:13:52.805Z,52.40
2019-02-16T12:16:31.877Z,51.90
2019-02-16T12:19:04.328Z,51.90
2019-02-16T12:21:49.357Z,52.10
2019-02-16T12:26:57.832Z,52.20
2019-02-16T12:29:36.462Z,52.70
2019-02-16T12:32:15.654Z,52.90
2019-02-16T12:35:02.077Z,53.10
2019-02-16T12:40:04.832Z,52.70
2019-02-16T12:42:40.740Z,53.20
2019-02-16T12:47:41.568Z,53.50
2019-02-16T12:50:14.150Z,54.40
2019-02-16T12:52:44.222Z,54.40
2019-02-16T12:55:17.249Z,53.40
2019-02-16T12:57:47.293Z,54.00
2019-02-16T13:00:20.138Z,54.50
2019-02-16T13:02:50.176Z,53.40
2019-02-16T13:05:20.293Z,53.60
2019-02-16T13:10:25.781Z,54.40
2019-02-16T13:15:40.264Z,54.10
2019-02-16T13:18:22.524Z,53.50
2019-02-16T13:20:52.577Z,53.40
2019-02-16T13:23:22.612Z,52.60
2019-02-16T13:25:55.433Z,53.00
2019-02-16T13:28:25.583Z,51.50
2019-02-16T13:36:10.158Z,51.40
2019-02-16T13:38:42.897Z,51.30
2019-02-16T13:41:12.968Z,52.50
2019-02-16T13:43:43.009Z,51.40
2019-02-16T13:46:30.608Z,51.50
2019-02-16T13:49:03.505Z,51.30
2019-02-16T13:51:39.644Z,51.00
2019-02-16T13:54:09.770Z,51.80
2019-02-16T13:56:42.521Z,51.60
2019-02-16T13:59:12.573Z,51.40
2019-02-16T14:01:45.313Z,50.90
2019-02-16T14:04:18.057Z,51.40
2019-02-16T14:06:48.104Z,51.80
2019-02-16T14:09:21.268Z,51.20
2019-02-16T14:11:54.249Z,50.90
2019-02-16T14:14:33.451Z,51.20
2019-02-16T14:19:34.255Z,50.20
2019-02-16T14:22:02.657Z,50.00
2019-02-16T14:24:41.695Z,50.00
2019-02-16T14:29:38.160Z,50.10
2019-02-16T14:32:06.573Z,50.70
2019-02-16T14:34:34.975Z,50.90
2019-02-16T14:37:05.030Z,51.90
2019-02-16T14:39:34.505Z,52.10
2019-02-16T14:42:02.908Z,51.60
2019-02-16T14:44:31.316Z,51.50
2019-02-16T14:46:59.728Z,51.60
2019-02-16T14:51:56.201Z,51.70
2019-02-16T14:54:24.612Z,51.80
2019-02-16T14:56:53.025Z,51.60
2019-02-16T14:59:21.423Z,51.90
2019-02-16T15:01:49.837Z,51.80
2019-02-16T15:04:18.237Z,51.70
2019-02-16T15:06:46.640Z,51.70
2019-02-16T15:09:15.079Z,51.40
2019-02-16T15:11:43.576Z,51.60
2019-02-16T15:16:40.053Z,51.50
2019-02-16T15:19:08.452Z,51.60
2019-02-16T15:21:36.869Z,51.70
2019-02-16T15:24:05.273Z,51.70
2019-02-16T15:26:33.686Z,51.70
2019-02-16T15:29:02.078Z,52.10
2019-02-16T15:31:30.542Z,52.30
2019-02-16T15:33:58.928Z,52.60
2019-02-16T15:38:55.425Z,52.90
2019-02-16T15:41:23.832Z,52.90
2019-02-16T15:43:52.237Z,53.00
2019-02-16T15:46:20.644Z,53.20
2019-02-16T15:48:49.051Z,53.20
2019-02-16T15:51:18.683Z,53.30
2019-02-16T15:53:47.343Z,53.40
2019-02-16T15:58:43.851Z,53.50
2019-02-16T16:01:12.319Z,53.60
2019-02-16T16:03:40.712Z,55.10
2019-02-16T16:06:09.108Z,56.70
2019-02-16T16:08:45.166Z,57.30
2019-02-16T16:11:27.217Z,57.00
2019-02-16T16:13:57.284Z,57.80
2019-02-16T16:16:36.285Z,58.10
2019-02-16T16:21:50.192Z,59.30
2019-02-16T16:24:36.429Z,59.40
2019-02-16T16:27:06.479Z,59.30
2019-02-16T16:29:36.527Z,59.00
2019-02-16T16:32:15.312Z,59.40
2019-02-16T16:37:15.065Z,61.60
2019-02-16T16:39:54.305Z,62.70
2019-02-16T16:42:30.495Z,62.90
2019-02-16T16:45:15.614Z,63.70
2019-02-16T16:47:48.108Z,64.60
2019-02-16T16:50:21.052Z,64.80
2019-02-16T16:55:39.443Z,65.80
2019-02-16T16:58:25.610Z,66.10
2019-02-16T17:00:55.653Z,66.30
2019-02-16T17:03:41.688Z,66.80
2019-02-16T17:08:58.872Z,67.20
2019-02-16T17:11:31.877Z,67.40
2019-02-16T17:14:18.128Z,67.80
2019-02-16T17:16:48.164Z,68.20
2019-02-16T17:19:18.213Z,68.30
2019-02-16T17:21:48.254Z,68.60
2019-02-16T17:24:18.292Z,68.70
2019-02-16T17:29:26.571Z,69.00
2019-02-16T17:32:02.449Z,69.10
2019-02-16T17:34:32.508Z,69.10
2019-02-16T17:37:11.292Z,69.10
2019-02-16T17:39:50.053Z,69.00
2019-02-16T17:42:32.025Z,69.20
2019-02-16T17:47:48.352Z,69.80
2019-02-16T17:50:21.159Z,69.90
2019-02-16T17:52:57.167Z,69.90
2019-02-16T17:55:43.372Z,70.20
2019-02-16T17:58:13.456Z,70.00
2019-02-16T18:00:58.524Z,70.30
2019-02-16T18:03:37.537Z,70.50
2019-02-16T18:06:10.253Z,70.80
2019-02-16T18:08:43.252Z,70.80
2019-02-16T18:11:19.510Z,70.90
2019-02-16T18:16:21.793Z,70.90
2019-02-16T18:18:57.501Z,71.00
2019-02-16T18:21:30.293Z,71.00
2019-02-16T18:29:11.623Z,71.10
2019-02-16T18:32:01.017Z,71.20
2019-02-16T18:34:49.022Z,71.30
2019-02-16T18:37:19.085Z,71.50
2019-02-16T18:39:49.153Z,71.60
2019-02-16T18:42:24.917Z,71.70
2019-02-16T18:44:55.001Z,71.60
2019-02-16T18:47:27.576Z,71.70
2019-02-16T18:49:57.608Z,71.70
2019-02-16T18:52:30.432Z,71.70
2019-02-16T18:55:10.649Z,71.70
2019-02-16T18:57:35.310Z,72.00
2019-02-16T19:00:22.311Z,71.90
2019-02-16T19:02:52.375Z,71.80
2019-02-16T19:05:38.727Z,71.90
2019-02-16T19:08:23.966Z,71.90
2019-02-16T19:10:53.987Z,71.70
2019-02-16T19:13:33.236Z,71.90
2019-02-16T19:18:33.037Z,71.70
2019-02-16T19:21:11.682Z,71.80
2019-02-16T19:23:44.451Z,71.90
2019-02-16T19:26:23.596Z,72.10
2019-02-16T19:29:02.381Z,72.00
2019-02-16T19:34:13.837Z,71.90
2019-02-16T19:37:00.289Z,72.00
2019-02-16T19:39:47.041Z,72.70
2019-02-16T19:42:19.817Z,73.10
2019-02-16T19:48:01.280Z,73.20
2019-02-16T19:50:43.379Z,73.40
2019-02-16T19:53:22.351Z,73.70
2019-02-16T19:55:52.386Z,73.30
2019-02-16T19:58:28.446Z,73.10
2019-02-16T20:01:14.688Z,73.00
2019-02-16T20:03:47.769Z,73.20
2019-02-16T20:08:50.191Z,73.20
2019-02-16T20:11:20.236Z,73.00
2019-02-16T20:13:52.934Z,73.10
2019-02-16T20:18:58.117Z,73.50
2019-02-16T20:21:39.991Z,73.70
2019-02-16T20:24:10.049Z,73.80
2019-02-16T20:26:46.160Z,73.90
2019-02-16T20:32:10.988Z,74.10
2019-02-16T20:34:53.232Z,74.30
2019-02-16T20:40:07.745Z,74.30
2019-02-16T20:42:37.777Z,74.40
2019-02-16T20:45:12.349Z,74.60
2019-02-16T20:47:42.380Z,74.80
2019-02-16T20:50:15.356Z,74.80
2019-02-16T20:52:54.419Z,74.70
2019-02-16T20:55:24.460Z,74.50
2019-02-16T20:58:10.800Z,75.20
2019-02-16T21:00:43.753Z,75.50
2019-02-16T21:03:13.793Z,75.40
2019-02-16T21:05:46.300Z,75.50
2019-02-16T21:08:16.336Z,75.50
2019-02-16T21:11:04.388Z,75.40
2019-02-16T21:13:34.421Z,75.10
2019-02-16T21:16:04.536Z,75.30
2019-02-16T21:21:16.256Z,75.40
2019-02-16T21:23:46.289Z,75.20
2019-02-16T21:26:36.593Z,75.60
2019-02-16T21:29:03.032Z,76.00
2019-02-16T21:31:49.244Z,76.00
2019-02-16T21:36:49.021Z,75.80
2019-02-16T21:39:30.945Z,75.80
2019-02-16T21:42:06.776Z,75.70
2019-02-16T21:44:36.812Z,75.60
2019-02-16T21:47:06.853Z,75.40
2019-02-16T21:49:53.988Z,75.30
2019-02-16T21:52:32.868Z,75.20
2019-02-16T21:55:14.661Z,75.10
2019-02-16T21:57:44.676Z,75.10
2019-02-16T22:00:26.647Z,75.30
2019-02-16T22:02:59.601Z,75.20
2019-02-16T22:08:23.789Z,75.40
2019-02-16T22:10:53.836Z,75.30
2019-02-16T22:13:22.241Z,75.40
2019-02-16T22:15:50.649Z,75.10
2019-02-16T22:18:19.045Z,74.90
2019-02-16T22:20:47.453Z,74.90
2019-02-16T22:23:15.840Z,75.30
2019-02-16T22:25:44.250Z,75.20
2019-02-16T22:30:42.439Z,75.40
2019-02-16T22:33:10.840Z,75.40
2019-02-16T22:35:39.253Z,75.40
2019-02-16T22:38:07.643Z,75.40
2019-02-16T22:43:04.128Z,75.10
2019-02-16T22:45:32.537Z,75.20
2019-02-16T22:48:00.930Z,75.70
2019-02-16T22:50:29.340Z,76.20
2019-02-16T22:52:57.776Z,76.50
2019-02-16T22:55:26.177Z,76.60
2019-02-16T22:57:54.597Z,76.70
2019-02-16T23:00:40.605Z,76.80
2019-02-16T23:03:09.142Z,76.90
2019-02-16T23:05:37.575Z,76.80
2019-02-16T23:08:06.238Z,77.00
2019-02-16T23:10:34.640Z,77.10
2019-02-16T23:13:03.044Z,77.20
2019-02-16T23:20:47.810Z,76.80
2019-02-16T23:23:16.537Z,77.00
2019-02-16T23:25:44.939Z,77.10
2019-02-16T23:28:13.343Z,77.10
2019-02-16T23:30:41.809Z,76.80
2019-02-16T23:33:10.303Z,76.50
2019-02-16T23:35:38.692Z,76.50
2019-02-16T23:38:07.104Z,76.60
2019-02-16T23:40:35.498Z,76.70
2019-02-16T23:43:03.901Z,76.80
2019-02-16T23:45:32.291Z,76.70
2019-02-16T23:48:00.696Z,76.80
2019-02-16T23:50:29.102Z,76.80
2019-02-16T23:58:13.000Z,76.60
